Himeji, Japan
Current Conditions -  °F | °C
As of 1:00 PM on Sunday 21 Dec 2014 (Local Time) from RJBE Reporting Station
Broken Clouds Broken Clouds  
Wind Chill: 42°   Ceiling: Unl
Heat Index: 48°   Visibility: 6mi
Dew Point: 34°   Wind: 18mph
Humidity: 57%   Direction: 270°W
Pressure: 29.97"   Gusts: NA
Location:  34.83°N, 134.69°E
Report Text: RJBE 210400Z 27016KT 9999 FEW025 SCT040 BKN/// 09/01 Q1015
Loading
Personal Weather Stations






























Interactive Weather Map New forecast layout! Learn more

10-Day Weather Forecast

Advertisements
Track Severe Weather on mobile